createdAt,value
2018-12-11T00:01:39.732Z,5.05
2018-12-11T00:05:48.695Z,5.11
2018-12-11T00:09:54.517Z,5.08
2018-12-11T00:14:00.241Z,5.06
2018-12-11T00:18:06.214Z,5.13
2018-12-11T00:22:12.188Z,5.06
2018-12-11T00:26:19.076Z,5.08
2018-12-11T00:30:24.905Z,4.96
2018-12-11T00:34:31.123Z,4.97
2018-12-11T00:38:37.113Z,4.89
2018-12-11T00:42:43.449Z,4.82
2018-12-11T00:46:49.480Z,4.96
2018-12-11T00:50:55.388Z,4.86
2018-12-11T00:55:01.389Z,4.98
2018-12-11T00:59:07.273Z,4.88
2018-12-11T01:03:13.031Z,4.84
2018-12-11T01:07:19.038Z,4.80
2018-12-11T01:11:25.011Z,4.76
2018-12-11T01:15:30.926Z,4.74
2018-12-11T01:19:36.898Z,4.66
2018-12-11T01:23:43.086Z,4.67
2018-12-11T01:27:48.973Z,4.59
2018-12-11T01:31:54.790Z,4.58
2018-12-11T01:36:01.726Z,4.55
2018-12-11T01:40:08.420Z,4.46
2018-12-11T01:44:14.045Z,4.40
2018-12-11T01:48:19.897Z,4.43
2018-12-11T01:52:25.683Z,4.35
2018-12-11T01:56:31.550Z,4.37
2018-12-11T02:00:37.553Z,4.41
2018-12-11T02:04:43.837Z,4.33
2018-12-11T02:08:49.690Z,4.43
2018-12-11T02:12:55.656Z,4.50
2018-12-11T02:17:01.462Z,4.53
2018-12-11T02:21:07.329Z,4.58
2018-12-11T02:25:13.263Z,4.57
2018-12-11T02:29:19.249Z,4.56
2018-12-11T02:33:25.101Z,4.48
2018-12-11T02:37:31.027Z,4.52
2018-12-11T02:41:36.917Z,4.45
2018-12-11T02:45:43.073Z,4.43
2018-12-11T02:49:50.228Z,4.43
2018-12-11T02:53:55.987Z,4.42
2018-12-11T02:58:01.792Z,4.42
2018-12-11T03:02:07.778Z,4.43
2018-12-11T03:06:15.079Z,4.47
2018-12-11T03:10:20.911Z,4.49
2018-12-11T03:14:26.827Z,4.53
2018-12-11T03:18:33.029Z,4.61
2018-12-11T03:22:39.084Z,4.65
2018-12-11T03:26:45.062Z,4.67
2018-12-11T03:30:51.126Z,4.72
2018-12-11T03:34:57.898Z,4.75
2018-12-11T03:39:05.109Z,4.66
2018-12-11T03:43:12.133Z,4.64
2018-12-11T03:47:19.133Z,4.64
2018-12-11T03:51:25.958Z,4.55
2018-12-11T03:55:31.685Z,4.21
2018-12-11T03:59:37.755Z,4.23
2018-12-11T04:03:43.761Z,4.23
2018-12-11T04:07:50.487Z,4.20
2018-12-11T04:11:57.529Z,4.12
2018-12-11T04:16:03.964Z,4.16
2018-12-11T04:20:10.082Z,4.07
2018-12-11T04:24:15.915Z,4.05
2018-12-11T04:28:23.817Z,4.02
2018-12-11T04:32:29.780Z,4.12
2018-12-11T04:36:35.524Z,4.14
2018-12-11T04:40:41.384Z,4.13
2018-12-11T04:44:47.535Z,4.21
2018-12-11T04:48:53.494Z,4.16
2018-12-11T04:53:00.321Z,4.19
2018-12-11T04:57:06.315Z,4.17
2018-12-11T05:01:14.249Z,4.31
2018-12-11T05:05:20.377Z,4.26
2018-12-11T05:09:26.088Z,4.35
2018-12-11T05:13:32.969Z,4.25
2018-12-11T05:17:38.881Z,4.26
2018-12-11T05:21:44.627Z,4.27
2018-12-11T05:25:50.521Z,4.44
2018-12-11T05:29:56.578Z,4.39
2018-12-11T05:34:03.592Z,4.29
2018-12-11T05:38:10.230Z,4.32
2018-12-11T05:42:16.273Z,4.19
2018-12-11T05:46:22.156Z,4.16
2018-12-11T05:50:28.203Z,4.17
2018-12-11T05:54:34.317Z,4.23
2018-12-11T05:58:40.178Z,4.18
2018-12-11T06:02:46.062Z,4.15
2018-12-11T06:06:52.237Z,4.13
2018-12-11T06:10:58.300Z,4.19
2018-12-11T06:15:04.459Z,4.30
2018-12-11T06:19:10.264Z,4.24
2018-12-11T06:23:16.133Z,4.14
2018-12-11T06:27:22.062Z,4.22
2018-12-11T06:31:29.559Z,4.30
2018-12-11T06:35:35.402Z,4.39
2018-12-11T06:39:41.368Z,4.44
2018-12-11T06:43:47.113Z,4.48
2018-12-11T06:47:53.142Z,4.42
2018-12-11T06:51:59.169Z,4.49
2018-12-11T06:56:05.519Z,4.59
2018-12-11T07:00:11.659Z,4.59
2018-12-11T07:04:17.661Z,4.57
2018-12-11T07:08:24.379Z,4.58
2018-12-11T07:12:30.412Z,4.81
2018-12-11T07:16:36.838Z,4.84
2018-12-11T07:20:42.826Z,4.76
2018-12-11T07:24:48.784Z,4.77
2018-12-11T07:28:54.306Z,4.84
2018-12-11T07:32:59.913Z,4.77
2018-12-11T07:37:05.550Z,4.70
2018-12-11T07:41:11.088Z,4.83
2018-12-11T07:45:17.022Z,4.68
2018-12-11T07:49:26.854Z,4.66
2018-12-11T07:53:38.034Z,4.50
2018-12-11T07:57:44.589Z,4.58
2018-12-11T08:01:54.361Z,4.51
2018-12-11T08:06:06.176Z,4.50
2018-12-11T08:10:12.630Z,4.51
2018-12-11T08:14:18.418Z,4.53
2018-12-11T08:18:24.016Z,4.53
2018-12-11T08:22:29.678Z,4.57
2018-12-11T08:26:35.467Z,4.60
2018-12-11T08:30:41.164Z,4.71
2018-12-11T08:34:46.990Z,4.80
2018-12-11T08:38:52.894Z,4.81
2018-12-11T08:42:58.865Z,5.15
2018-12-11T08:47:05.115Z,5.01
2018-12-11T08:51:11.068Z,5.04
2018-12-11T08:55:16.817Z,5.06
2018-12-11T08:59:22.969Z,5.02
2018-12-11T09:03:34.736Z,5.12
2018-12-11T09:07:41.735Z,5.16
2018-12-11T09:11:48.173Z,5.30
2018-12-11T09:15:55.654Z,5.52
2018-12-11T09:20:01.791Z,5.60
2018-12-11T09:24:07.756Z,5.65
2018-12-11T09:28:14.393Z,5.60
2018-12-11T09:32:20.509Z,5.74
2018-12-11T09:36:26.899Z,5.63
2018-12-11T09:40:33.096Z,5.62
2018-12-11T09:44:38.847Z,5.81
2018-12-11T09:48:44.555Z,5.85
2018-12-11T09:52:50.542Z,6.03
2018-12-11T09:56:56.471Z,6.05
2018-12-11T10:01:03.498Z,6.38
2018-12-11T10:05:09.355Z,5.99
2018-12-11T10:09:15.260Z,6.07
2018-12-11T10:13:22.209Z,6.18
2018-12-11T10:17:29.645Z,6.31
2018-12-11T10:21:36.151Z,6.17
2018-12-11T10:25:42.267Z,6.17
2018-12-11T10:29:48.327Z,6.20
2018-12-11T10:33:55.881Z,5.94
2018-12-11T10:38:02.344Z,5.80
2018-12-11T10:42:08.790Z,5.78
2018-12-11T10:46:15.440Z,5.80
2018-12-11T10:50:21.486Z,5.73
2018-12-11T10:54:28.249Z,5.59
2018-12-11T10:58:35.842Z,5.72
2018-12-11T11:02:48.478Z,6.22
2018-12-11T11:06:56.738Z,6.09
2018-12-11T11:11:03.205Z,6.01
2018-12-11T11:15:09.826Z,6.06
2018-12-11T11:19:16.752Z,6.77
2018-12-11T11:23:23.602Z,7.12
2018-12-11T11:27:31.085Z,7.55
2018-12-11T11:31:37.812Z,8.25
2018-12-11T11:35:43.566Z,8.25
2018-12-11T11:39:49.802Z,8.04
2018-12-11T11:43:55.812Z,8.16
2018-12-11T11:48:01.818Z,8.82
2018-12-11T11:52:07.568Z,9.17
2018-12-11T11:56:13.808Z,9.15
2018-12-11T12:00:19.696Z,9.07
2018-12-11T12:04:26.355Z,9.74
2018-12-11T12:08:32.503Z,9.14
2018-12-11T12:12:40.526Z,8.89
2018-12-11T12:16:46.772Z,8.88
2018-12-11T12:20:53.843Z,8.69
2018-12-11T12:25:01.378Z,8.98
2018-12-11T12:33:28.022Z,8.52
2018-12-11T12:37:35.800Z,8.67
2018-12-11T12:41:41.723Z,8.43
2018-12-11T12:45:47.628Z,7.99
2018-12-11T12:49:54.060Z,7.95
2018-12-11T12:54:00.232Z,8.02
2018-12-11T12:58:06.233Z,8.04
2018-12-11T13:02:12.736Z,7.74
2018-12-11T13:06:19.662Z,7.62
2018-12-11T13:10:26.520Z,7.23
2018-12-11T13:14:32.464Z,7.17
2018-12-11T13:18:42.825Z,6.97
2018-12-11T13:22:48.870Z,6.87
2018-12-11T13:26:55.438Z,6.83
2018-12-11T13:31:01.051Z,7.08
2018-12-11T13:35:07.047Z,6.82
2018-12-11T13:39:12.719Z,6.90
2018-12-11T13:43:18.317Z,6.78
2018-12-11T13:47:24.109Z,6.76
2018-12-11T13:51:30.024Z,6.50
2018-12-11T13:55:35.566Z,6.44
2018-12-11T13:59:42.414Z,6.41
2018-12-11T14:03:48.326Z,6.52
2018-12-11T14:07:54.058Z,6.55
2018-12-11T14:12:00.023Z,6.55
2018-12-11T14:16:05.798Z,6.49
2018-12-11T14:20:11.546Z,6.50
2018-12-11T14:24:17.589Z,6.41
2018-12-11T14:28:23.774Z,6.39
2018-12-11T14:32:29.469Z,6.18
2018-12-11T14:36:35.033Z,6.18
2018-12-11T14:40:42.730Z,6.09
2018-12-11T14:44:48.721Z,6.01
2018-12-11T14:48:54.421Z,5.99
2018-12-11T14:53:01.957Z,5.90
2018-12-11T14:57:09.361Z,5.84
2018-12-11T15:01:14.990Z,5.82
2018-12-11T15:05:21.089Z,5.70
2018-12-11T15:09:31.934Z,5.68
2018-12-11T15:13:37.726Z,5.60
2018-12-11T15:17:43.389Z,5.63
2018-12-11T15:21:49.765Z,5.51
2018-12-11T15:25:55.991Z,5.48
2018-12-11T15:30:01.625Z,5.39
2018-12-11T15:34:07.595Z,5.43
2018-12-11T15:38:13.334Z,5.31
2018-12-11T15:42:19.035Z,5.29
2018-12-11T15:46:24.864Z,5.24
2018-12-11T15:50:30.493Z,5.24
2018-12-11T15:54:36.433Z,5.21
2018-12-11T15:58:42.484Z,5.13
2018-12-11T16:02:48.269Z,5.14
2018-12-11T16:06:54.285Z,5.14
2018-12-11T16:11:00.365Z,5.18
2018-12-11T16:15:06.653Z,4.98
2018-12-11T16:19:12.359Z,5.15
2018-12-11T16:23:18.485Z,5.21
2018-12-11T16:27:25.883Z,5.36
2018-12-11T16:31:31.821Z,5.29
2018-12-11T16:35:41.168Z,5.13
2018-12-11T16:40:07.239Z,5.27
2018-12-11T16:44:16.353Z,5.62
2018-12-11T16:48:24.505Z,5.48
2018-12-11T16:52:30.248Z,5.12
2018-12-11T16:56:37.014Z,5.10
2018-12-11T17:00:43.533Z,4.93
2018-12-11T17:04:50.038Z,4.91
2018-12-11T17:08:57.166Z,4.75
2018-12-11T17:13:03.218Z,4.81
2018-12-11T17:17:09.288Z,4.77
2018-12-11T17:21:15.089Z,4.70
2018-12-11T17:25:22.239Z,4.67
2018-12-11T17:29:29.960Z,4.70
2018-12-11T17:33:36.478Z,4.68
2018-12-11T17:37:43.250Z,4.70
2018-12-11T17:41:49.801Z,4.64
2018-12-11T17:45:55.788Z,4.65
2018-12-11T17:50:02.470Z,4.65
2018-12-11T17:54:10.490Z,4.60
2018-12-11T17:58:16.581Z,4.67
2018-12-11T18:02:27.562Z,4.68
2018-12-11T18:06:34.080Z,4.72
2018-12-11T18:10:40.424Z,4.79
2018-12-11T18:14:47.891Z,4.87
2018-12-11T18:18:54.296Z,4.87
2018-12-11T18:23:00.443Z,4.95
2018-12-11T18:27:06.511Z,4.92
2018-12-11T18:31:12.336Z,4.98
2018-12-11T18:35:19.282Z,5.02
2018-12-11T18:39:25.470Z,5.01
2018-12-11T18:43:31.767Z,5.14
2018-12-11T18:47:38.872Z,5.05
2018-12-11T18:51:46.412Z,5.23
2018-12-11T18:55:52.855Z,5.18
2018-12-11T19:00:00.712Z,5.25
2018-12-11T19:04:08.623Z,5.23
2018-12-11T19:08:14.595Z,5.27
2018-12-11T19:12:20.746Z,5.23
2018-12-11T19:16:27.704Z,5.25
2018-12-11T19:20:33.759Z,5.28
2018-12-11T19:24:57.851Z,5.43
2018-12-11T19:29:04.711Z,5.30
2018-12-11T19:33:12.796Z,5.37
2018-12-11T19:37:20.736Z,5.25
2018-12-11T19:41:26.738Z,5.34
2018-12-11T19:45:32.687Z,5.29
2018-12-11T19:49:39.003Z,5.38
2018-12-11T19:58:09.768Z,5.25
2018-12-11T20:02:17.738Z,5.34
2018-12-11T20:06:23.727Z,5.30
2018-12-11T20:10:30.610Z,5.21
2018-12-11T20:14:36.519Z,5.32
2018-12-11T20:18:42.650Z,5.33
2018-12-11T20:22:49.326Z,5.36
2018-12-11T20:26:57.389Z,5.25
2018-12-11T20:31:03.042Z,5.32
2018-12-11T20:35:09.574Z,5.37
2018-12-11T20:39:16.002Z,5.44
2018-12-11T20:43:22.545Z,5.40
2018-12-11T20:47:28.402Z,5.48
2018-12-11T20:51:34.457Z,5.41
2018-12-11T20:55:40.346Z,5.42
2018-12-11T20:59:46.595Z,5.48
2018-12-11T21:03:52.532Z,5.41
2018-12-11T21:08:00.112Z,5.50
2018-12-11T21:12:05.777Z,5.46
2018-12-11T21:16:12.947Z,5.34
2018-12-11T21:20:18.887Z,5.48
2018-12-11T21:24:25.511Z,5.59
2018-12-11T21:28:33.051Z,5.56
2018-12-11T21:32:39.862Z,5.56
2018-12-11T21:36:46.927Z,5.48
2018-12-11T21:40:52.883Z,5.44
2018-12-11T21:44:58.755Z,5.33
2018-12-11T21:49:04.514Z,5.26
2018-12-11T21:53:10.510Z,5.19
2018-12-11T21:57:16.313Z,5.09
2018-12-11T22:01:22.949Z,4.90
2018-12-11T22:05:32.321Z,4.82
2018-12-11T22:09:38.239Z,4.90
2018-12-11T22:13:44.245Z,4.91
2018-12-11T22:17:50.143Z,4.77
2018-12-11T22:21:56.032Z,4.86
2018-12-11T22:26:01.670Z,4.68
2018-12-11T22:30:08.108Z,4.81
2018-12-11T22:34:14.785Z,4.71
2018-12-11T22:38:21.315Z,4.80
2018-12-11T22:42:28.729Z,4.76
2018-12-11T22:46:37.975Z,4.81
2018-12-11T22:50:52.179Z,4.70
2018-12-11T22:55:00.728Z,4.71
2018-12-11T22:59:09.365Z,4.74
2018-12-11T23:03:16.467Z,4.78
2018-12-11T23:07:22.367Z,4.73
2018-12-11T23:11:28.191Z,4.73
2018-12-11T23:15:34.248Z,4.57
2018-12-11T23:19:40.275Z,4.71
2018-12-11T23:23:46.415Z,4.55
2018-12-11T23:27:52.816Z,4.50
2018-12-11T23:31:59.188Z,4.46
2018-12-11T23:36:06.537Z,4.31
2018-12-11T23:40:12.696Z,4.25
2018-12-11T23:44:18.383Z,4.40
2018-12-11T23:48:24.295Z,4.25
2018-12-11T23:52:30.271Z,4.37
2018-12-11T23:56:36.321Z,4.34
